sensor_id;sensor_type;location;lat;lon;timestamp;P1;durP1;ratioP1;P2;durP2;ratioP2
17171;SDS011;8701;50.150;8.756;2023-04-08T00:03:18;5.33;;;2.93;;
17171;SDS011;8701;50.150;8.756;2023-04-08T00:07:21;5.00;;;2.90;;
17171;SDS011;8701;50.150;8.756;2023-04-08T00:11:23;4.90;;;2.87;;
17171;SDS011;8701;50.150;8.756;2023-04-08T00:15:27;4.87;;;2.83;;
17171;SDS011;8701;50.150;8.756;2023-04-08T00:19:29;5.00;;;2.30;;
17171;SDS011;8701;50.150;8.756;2023-04-08T00:23:31;4.93;;;2.37;;
17171;SDS011;8701;50.150;8.756;2023-04-08T00:27:34;5.40;;;2.67;;
17171;SDS011;8701;50.150;8.756;2023-04-08T00:31:37;4.90;;;2.73;;
17171;SDS011;8701;50.150;8.756;2023-04-08T00:35:39;5.27;;;2.90;;
17171;SDS011;8701;50.150;8.756;2023-04-08T00:39:42;6.10;;;3.20;;
17171;SDS011;8701;50.150;8.756;2023-04-08T00:43:44;6.50;;;3.07;;
17171;SDS011;8701;50.150;8.756;2023-04-08T00:47:47;5.50;;;3.00;;
17171;SDS011;8701;50.150;8.756;2023-04-08T00:51:52;5.90;;;3.10;;
17171;SDS011;8701;50.150;8.756;2023-04-08T00:55:55;7.70;;;3.90;;
17171;SDS011;8701;50.150;8.756;2023-04-08T00:59:57;5.90;;;3.23;;
17171;SDS011;8701;50.150;8.756;2023-04-08T01:04:04;5.40;;;3.27;;
17171;SDS011;8701;50.150;8.756;2023-04-08T01:08:12;6.23;;;3.50;;
17171;SDS011;8701;50.150;8.756;2023-04-08T01:12:17;5.47;;;3.20;;
17171;SDS011;8701;50.150;8.756;2023-04-08T01:16:22;6.30;;;3.40;;
17171;SDS011;8701;50.150;8.756;2023-04-08T01:20:28;6.53;;;3.97;;
17171;SDS011;8701;50.150;8.756;2023-04-08T01:24:32;6.00;;;3.17;;
17171;SDS011;8701;50.150;8.756;2023-04-08T01:28:41;6.60;;;3.90;;
17171;SDS011;8701;50.150;8.756;2023-04-08T01:32:44;6.50;;;3.50;;
17171;SDS011;8701;50.150;8.756;2023-04-08T01:36:48;6.43;;;3.40;;
17171;SDS011;8701;50.150;8.756;2023-04-08T01:40:52;6.90;;;4.03;;
17171;SDS011;8701;50.150;8.756;2023-04-08T01:44:57;9.03;;;4.67;;
17171;SDS011;8701;50.150;8.756;2023-04-08T01:49:01;7.80;;;4.20;;
17171;SDS011;8701;50.150;8.756;2023-04-08T01:53:04;6.87;;;3.97;;
17171;SDS011;8701;50.150;8.756;2023-04-08T01:57:09;7.30;;;3.67;;
17171;SDS011;8701;50.150;8.756;2023-04-08T02:01:17;6.33;;;4.10;;
17171;SDS011;8701;50.150;8.756;2023-04-08T02:05:23;8.40;;;5.13;;
17171;SDS011;8701;50.150;8.756;2023-04-08T02:09:26;7.40;;;4.67;;
17171;SDS011;8701;50.150;8.756;2023-04-08T02:13:28;6.97;;;4.60;;
17171;SDS011;8701;50.150;8.756;2023-04-08T02:17:34;8.07;;;4.53;;
17171;SDS011;8701;50.150;8.756;2023-04-08T02:21:45;8.27;;;4.93;;
17171;SDS011;8701;50.150;8.756;2023-04-08T02:25:51;7.63;;;5.00;;
17171;SDS011;8701;50.150;8.756;2023-04-08T02:30:00;9.07;;;5.33;;
17171;SDS011;8701;50.150;8.756;2023-04-08T02:34:05;11.43;;;5.40;;
17171;SDS011;8701;50.150;8.756;2023-04-08T02:38:10;7.63;;;4.60;;
17171;SDS011;8701;50.150;8.756;2023-04-08T02:42:12;8.73;;;4.93;;
17171;SDS011;8701;50.150;8.756;2023-04-08T02:46:15;6.90;;;4.33;;
17171;SDS011;8701;50.150;8.756;2023-04-08T02:50:18;8.57;;;5.33;;
17171;SDS011;8701;50.150;8.756;2023-04-08T02:54:20;8.47;;;4.80;;
17171;SDS011;8701;50.150;8.756;2023-04-08T02:58:23;10.13;;;5.10;;
17171;SDS011;8701;50.150;8.756;2023-04-08T03:02:25;7.30;;;4.57;;
17171;SDS011;8701;50.150;8.756;2023-04-08T03:06:28;8.33;;;5.00;;
17171;SDS011;8701;50.150;8.756;2023-04-08T03:10:31;9.30;;;5.83;;
17171;SDS011;8701;50.150;8.756;2023-04-08T03:14:33;8.80;;;5.50;;
17171;SDS011;8701;50.150;8.756;2023-04-08T03:18:35;8.00;;;5.03;;
17171;SDS011;8701;50.150;8.756;2023-04-08T03:22:38;9.17;;;5.70;;
17171;SDS011;8701;50.150;8.756;2023-04-08T03:26:41;9.00;;;5.37;;
17171;SDS011;8701;50.150;8.756;2023-04-08T03:30:44;10.17;;;5.53;;
17171;SDS011;8701;50.150;8.756;2023-04-08T03:34:46;7.13;;;4.73;;
17171;SDS011;8701;50.150;8.756;2023-04-08T03:38:52;9.80;;;5.90;;
17171;SDS011;8701;50.150;8.756;2023-04-08T03:42:54;9.63;;;5.90;;
17171;SDS011;8701;50.150;8.756;2023-04-08T03:46:56;10.00;;;5.67;;
17171;SDS011;8701;50.150;8.756;2023-04-08T03:50:58;9.30;;;6.00;;
17171;SDS011;8701;50.150;8.756;2023-04-08T03:55:02;15.40;;;6.20;;
17171;SDS011;8701;50.150;8.756;2023-04-08T03:59:04;8.97;;;5.23;;
17171;SDS011;8701;50.150;8.756;2023-04-08T04:03:07;10.40;;;5.80;;
17171;SDS011;8701;50.150;8.756;2023-04-08T04:07:10;9.60;;;5.63;;
17171;SDS011;8701;50.150;8.756;2023-04-08T04:11:13;9.63;;;5.70;;
17171;SDS011;8701;50.150;8.756;2023-04-08T04:15:16;8.97;;;5.63;;
17171;SDS011;8701;50.150;8.756;2023-04-08T04:19:18;11.13;;;6.87;;
17171;SDS011;8701;50.150;8.756;2023-04-08T04:23:21;10.10;;;6.47;;
17171;SDS011;8701;50.150;8.756;2023-04-08T04:27:26;10.57;;;6.10;;
17171;SDS011;8701;50.150;8.756;2023-04-08T04:31:28;11.33;;;6.27;;
17171;SDS011;8701;50.150;8.756;2023-04-08T04:35:31;10.73;;;6.23;;
17171;SDS011;8701;50.150;8.756;2023-04-08T04:39:33;9.00;;;5.63;;
17171;SDS011;8701;50.150;8.756;2023-04-08T04:43:37;9.10;;;5.80;;
17171;SDS011;8701;50.150;8.756;2023-04-08T04:47:40;10.17;;;6.10;;
17171;SDS011;8701;50.150;8.756;2023-04-08T04:51:43;9.70;;;5.97;;
17171;SDS011;8701;50.150;8.756;2023-04-08T04:55:45;11.77;;;6.80;;
17171;SDS011;8701;50.150;8.756;2023-04-08T04:59:49;12.10;;;6.50;;
17171;SDS011;8701;50.150;8.756;2023-04-08T05:03:51;10.90;;;6.90;;
17171;SDS011;8701;50.150;8.756;2023-04-08T05:07:54;10.23;;;6.17;;
17171;SDS011;8701;50.150;8.756;2023-04-08T05:11:56;9.80;;;6.13;;
17171;SDS011;8701;50.150;8.756;2023-04-08T05:16:00;11.70;;;6.93;;
17171;SDS011;8701;50.150;8.756;2023-04-08T05:20:02;12.50;;;7.47;;
17171;SDS011;8701;50.150;8.756;2023-04-08T05:24:05;12.63;;;6.83;;
17171;SDS011;8701;50.150;8.756;2023-04-08T05:28:07;10.33;;;6.63;;
17171;SDS011;8701;50.150;8.756;2023-04-08T05:36:17;11.90;;;7.17;;
17171;SDS011;8701;50.150;8.756;2023-04-08T05:40:19;13.67;;;7.47;;
17171;SDS011;8701;50.150;8.756;2023-04-08T05:44:22;9.60;;;6.40;;
17171;SDS011;8701;50.150;8.756;2023-04-08T05:48:26;12.90;;;7.27;;
17171;SDS011;8701;50.150;8.756;2023-04-08T05:52:31;11.10;;;7.23;;
17171;SDS011;8701;50.150;8.756;2023-04-08T05:56:35;11.33;;;7.53;;
17171;SDS011;8701;50.150;8.756;2023-04-08T06:00:38;10.53;;;7.03;;
17171;SDS011;8701;50.150;8.756;2023-04-08T06:04:41;13.13;;;6.70;;
17171;SDS011;8701;50.150;8.756;2023-04-08T06:08:44;10.03;;;6.10;;
17171;SDS011;8701;50.150;8.756;2023-04-08T06:12:46;13.27;;;7.20;;
17171;SDS011;8701;50.150;8.756;2023-04-08T06:16:48;11.53;;;7.07;;
17171;SDS011;8701;50.150;8.756;2023-04-08T06:20:54;12.57;;;7.27;;
17171;SDS011;8701;50.150;8.756;2023-04-08T06:24:56;11.50;;;7.30;;
17171;SDS011;8701;50.150;8.756;2023-04-08T06:28:58;11.67;;;7.30;;
17171;SDS011;8701;50.150;8.756;2023-04-08T06:33:01;10.83;;;6.40;;
17171;SDS011;8701;50.150;8.756;2023-04-08T06:37:05;11.73;;;6.17;;
17171;SDS011;8701;50.150;8.756;2023-04-08T06:41:07;9.63;;;5.83;;
17171;SDS011;8701;50.150;8.756;2023-04-08T06:45:10;9.73;;;5.90;;
17171;SDS011;8701;50.150;8.756;2023-04-08T06:49:12;14.23;;;6.60;;
17171;SDS011;8701;50.150;8.756;2023-04-08T06:53:16;9.70;;;5.90;;
17171;SDS011;8701;50.150;8.756;2023-04-08T06:57:18;9.80;;;5.87;;
17171;SDS011;8701;50.150;8.756;2023-04-08T07:01:20;11.57;;;6.40;;
17171;SDS011;8701;50.150;8.756;2023-04-08T07:05:23;10.53;;;6.57;;
17171;SDS011;8701;50.150;8.756;2023-04-08T07:09:27;10.30;;;6.23;;
17171;SDS011;8701;50.150;8.756;2023-04-08T07:13:29;10.03;;;5.80;;
17171;SDS011;8701;50.150;8.756;2023-04-08T07:17:32;11.63;;;6.80;;
17171;SDS011;8701;50.150;8.756;2023-04-08T07:21:34;9.80;;;6.80;;
17171;SDS011;8701;50.150;8.756;2023-04-08T07:25:38;9.67;;;6.03;;
17171;SDS011;8701;50.150;8.756;2023-04-08T07:29:40;17.67;;;7.00;;
17171;SDS011;8701;50.150;8.756;2023-04-08T07:33:42;11.83;;;6.73;;
17171;SDS011;8701;50.150;8.756;2023-04-08T07:37:45;12.10;;;6.50;;
17171;SDS011;8701;50.150;8.756;2023-04-08T07:41:49;11.27;;;6.70;;
17171;SDS011;8701;50.150;8.756;2023-04-08T07:45:51;11.40;;;7.00;;
17171;SDS011;8701;50.150;8.756;2023-04-08T07:49:53;11.57;;;6.40;;
17171;SDS011;8701;50.150;8.756;2023-04-08T07:53:56;9.80;;;6.57;;
17171;SDS011;8701;50.150;8.756;2023-04-08T07:58:00;13.47;;;7.37;;
17171;SDS011;8701;50.150;8.756;2023-04-08T08:02:02;10.47;;;6.57;;
17171;SDS011;8701;50.150;8.756;2023-04-08T08:06:05;13.10;;;6.17;;
17171;SDS011;8701;50.150;8.756;2023-04-08T08:10:07;12.23;;;7.07;;
17171;SDS011;8701;50.150;8.756;2023-04-08T08:14:12;10.80;;;6.63;;
17171;SDS011;8701;50.150;8.756;2023-04-08T08:18:15;11.60;;;6.30;;
17171;SDS011;8701;50.150;8.756;2023-04-08T08:22:17;10.10;;;6.63;;
17171;SDS011;8701;50.150;8.756;2023-04-08T08:26:19;11.00;;;6.00;;
17171;SDS011;8701;50.150;8.756;2023-04-08T08:30:24;10.97;;;6.37;;
17171;SDS011;8701;50.150;8.756;2023-04-08T08:34:27;11.97;;;6.67;;
17171;SDS011;8701;50.150;8.756;2023-04-08T08:38:29;8.77;;;6.20;;
17171;SDS011;8701;50.150;8.756;2023-04-08T08:42:31;10.93;;;6.57;;
17171;SDS011;8701;50.150;8.756;2023-04-08T08:46:35;11.67;;;6.57;;
17171;SDS011;8701;50.150;8.756;2023-04-08T08:50:37;11.33;;;7.10;;
17171;SDS011;8701;50.150;8.756;2023-04-08T08:54:39;11.10;;;6.80;;
17171;SDS011;8701;50.150;8.756;2023-04-08T08:58:42;9.83;;;5.20;;
17171;SDS011;8701;50.150;8.756;2023-04-08T09:02:45;13.03;;;7.30;;
17171;SDS011;8701;50.150;8.756;2023-04-08T09:06:48;10.73;;;6.90;;
17171;SDS011;8701;50.150;8.756;2023-04-08T09:10:52;10.87;;;6.47;;
17171;SDS011;8701;50.150;8.756;2023-04-08T09:15:04;12.50;;;7.90;;
17171;SDS011;8701;50.150;8.756;2023-04-08T09:19:10;10.30;;;6.30;;
17171;SDS011;8701;50.150;8.756;2023-04-08T09:23:12;9.90;;;6.70;;
17171;SDS011;8701;50.150;8.756;2023-04-08T09:27:15;8.00;;;5.27;;
17171;SDS011;8701;50.150;8.756;2023-04-08T09:31:18;8.60;;;4.80;;
17171;SDS011;8701;50.150;8.756;2023-04-08T09:35:22;9.90;;;5.80;;
17171;SDS011;8701;50.150;8.756;2023-04-08T09:39:26;8.30;;;4.37;;
17171;SDS011;8701;50.150;8.756;2023-04-08T09:43:28;12.43;;;5.03;;
17171;SDS011;8701;50.150;8.756;2023-04-08T09:47:31;10.60;;;5.70;;
17171;SDS011;8701;50.150;8.756;2023-04-08T09:51:42;10.83;;;4.60;;
17171;SDS011;8701;50.150;8.756;2023-04-08T09:55:52;9.50;;;5.40;;
17171;SDS011;8701;50.150;8.756;2023-04-08T09:59:59;10.90;;;5.50;;
17171;SDS011;8701;50.150;8.756;2023-04-08T10:04:14;11.60;;;5.30;;
17171;SDS011;8701;50.150;8.756;2023-04-08T10:08:21;9.87;;;5.00;;
17171;SDS011;8701;50.150;8.756;2023-04-08T10:12:25;10.70;;;5.07;;
17171;SDS011;8701;50.150;8.756;2023-04-08T10:16:27;10.07;;;5.07;;
17171;SDS011;8701;50.150;8.756;2023-04-08T10:20:40;10.87;;;4.70;;
17171;SDS011;8701;50.150;8.756;2023-04-08T10:24:47;11.53;;;5.90;;
17171;SDS011;8701;50.150;8.756;2023-04-08T10:29:29;11.23;;;5.00;;
17171;SDS011;8701;50.150;8.756;2023-04-08T10:33:32;10.17;;;5.90;;
17171;SDS011;8701;50.150;8.756;2023-04-08T10:37:35;10.83;;;5.40;;
17171;SDS011;8701;50.150;8.756;2023-04-08T10:41:41;12.90;;;5.50;;
17171;SDS011;8701;50.150;8.756;2023-04-08T10:45:43;8.43;;;5.10;;
17171;SDS011;8701;50.150;8.756;2023-04-08T10:49:50;9.67;;;4.80;;
17171;SDS011;8701;50.150;8.756;2023-04-08T10:53:52;15.30;;;5.30;;
17171;SDS011;8701;50.150;8.756;2023-04-08T10:57:56;9.77;;;4.70;;
17171;SDS011;8701;50.150;8.756;2023-04-08T11:02:13;10.27;;;5.80;;
17171;SDS011;8701;50.150;8.756;2023-04-08T11:06:18;9.57;;;5.17;;
17171;SDS011;8701;50.150;8.756;2023-04-08T11:10:20;13.33;;;5.30;;
17171;SDS011;8701;50.150;8.756;2023-04-08T11:14:24;10.07;;;5.77;;
17171;SDS011;8701;50.150;8.756;2023-04-08T11:18:26;9.83;;;5.20;;
17171;SDS011;8701;50.150;8.756;2023-04-08T11:22:29;9.50;;;5.73;;
17171;SDS011;8701;50.150;8.756;2023-04-08T11:26:33;10.00;;;6.00;;
17171;SDS011;8701;50.150;8.756;2023-04-08T11:30:37;11.13;;;6.40;;
17171;SDS011;8701;50.150;8.756;2023-04-08T11:34:39;9.80;;;5.53;;
17171;SDS011;8701;50.150;8.756;2023-04-08T11:38:42;10.43;;;6.20;;
17171;SDS011;8701;50.150;8.756;2023-04-08T11:42:44;10.53;;;6.10;;
17171;SDS011;8701;50.150;8.756;2023-04-08T11:46:54;9.50;;;5.90;;
17171;SDS011;8701;50.150;8.756;2023-04-08T11:51:01;8.77;;;5.70;;
17171;SDS011;8701;50.150;8.756;2023-04-08T11:55:04;9.57;;;5.63;;
17171;SDS011;8701;50.150;8.756;2023-04-08T11:59:07;8.93;;;5.77;;
17171;SDS011;8701;50.150;8.756;2023-04-08T12:03:11;8.83;;;5.30;;
17171;SDS011;8701;50.150;8.756;2023-04-08T12:07:13;8.70;;;5.50;;
17171;SDS011;8701;50.150;8.756;2023-04-08T12:11:15;9.17;;;6.20;;
17171;SDS011;8701;50.150;8.756;2023-04-08T12:15:18;11.07;;;5.70;;
17171;SDS011;8701;50.150;8.756;2023-04-08T12:19:21;10.13;;;6.33;;
17171;SDS011;8701;50.150;8.756;2023-04-08T12:23:24;10.00;;;6.13;;
17171;SDS011;8701;50.150;8.756;2023-04-08T12:27:26;8.20;;;5.03;;
17171;SDS011;8701;50.150;8.756;2023-04-08T12:31:28;9.37;;;5.73;;
17171;SDS011;8701;50.150;8.756;2023-04-08T12:35:32;9.60;;;5.80;;
17171;SDS011;8701;50.150;8.756;2023-04-08T12:39:35;10.87;;;6.03;;
17171;SDS011;8701;50.150;8.756;2023-04-08T12:43:37;8.20;;;5.30;;
17171;SDS011;8701;50.150;8.756;2023-04-08T12:47:40;8.40;;;4.70;;
17171;SDS011;8701;50.150;8.756;2023-04-08T12:51:43;10.07;;;4.30;;
17171;SDS011;8701;50.150;8.756;2023-04-08T12:55:46;8.40;;;4.90;;
17171;SDS011;8701;50.150;8.756;2023-04-08T12:59:49;7.73;;;4.73;;
17171;SDS011;8701;50.150;8.756;2023-04-08T13:03:51;7.80;;;4.90;;
17171;SDS011;8701;50.150;8.756;2023-04-08T13:07:55;9.40;;;5.67;;
17171;SDS011;8701;50.150;8.756;2023-04-08T13:11:57;9.20;;;5.87;;
17171;SDS011;8701;50.150;8.756;2023-04-08T13:16:00;10.80;;;6.27;;
17171;SDS011;8701;50.150;8.756;2023-04-08T13:20:03;10.00;;;5.90;;
17171;SDS011;8701;50.150;8.756;2023-04-08T13:24:07;12.43;;;6.30;;
17171;SDS011;8701;50.150;8.756;2023-04-08T13:28:10;14.00;;;7.70;;
17171;SDS011;8701;50.150;8.756;2023-04-08T13:32:12;9.37;;;5.70;;
17171;SDS011;8701;50.150;8.756;2023-04-08T13:36:14;10.10;;;5.43;;
17171;SDS011;8701;50.150;8.756;2023-04-08T13:40:18;9.27;;;6.20;;
17171;SDS011;8701;50.150;8.756;2023-04-08T13:44:20;11.53;;;6.77;;
17171;SDS011;8701;50.150;8.756;2023-04-08T13:48:23;11.43;;;6.40;;
17171;SDS011;8701;50.150;8.756;2023-04-08T13:52:25;11.60;;;5.57;;
17171;SDS011;8701;50.150;8.756;2023-04-08T13:56:28;9.97;;;6.50;;
17171;SDS011;8701;50.150;8.756;2023-04-08T14:00:31;11.03;;;6.80;;
17171;SDS011;8701;50.150;8.756;2023-04-08T14:04:33;10.13;;;6.30;;
17171;SDS011;8701;50.150;8.756;2023-04-08T14:08:36;11.00;;;6.67;;
17171;SDS011;8701;50.150;8.756;2023-04-08T14:12:39;12.73;;;7.40;;
17171;SDS011;8701;50.150;8.756;2023-04-08T14:16:42;9.90;;;6.30;;
17171;SDS011;8701;50.150;8.756;2023-04-08T14:20:44;10.93;;;6.50;;
17171;SDS011;8701;50.150;8.756;2023-04-08T14:24:46;29.10;;;7.20;;
17171;SDS011;8701;50.150;8.756;2023-04-08T14:28:50;12.60;;;7.50;;
17171;SDS011;8701;50.150;8.756;2023-04-08T14:32:52;11.10;;;7.47;;
17171;SDS011;8701;50.150;8.756;2023-04-08T14:36:55;14.50;;;7.80;;
17171;SDS011;8701;50.150;8.756;2023-04-08T14:40:57;13.80;;;8.10;;
17171;SDS011;8701;50.150;8.756;2023-04-08T14:45:00;14.23;;;8.20;;
17171;SDS011;8701;50.150;8.756;2023-04-08T14:49:03;17.73;;;8.50;;
17171;SDS011;8701;50.150;8.756;2023-04-08T14:53:06;13.60;;;8.47;;
17171;SDS011;8701;50.150;8.756;2023-04-08T14:57:08;15.33;;;8.30;;
17171;SDS011;8701;50.150;8.756;2023-04-08T15:01:12;14.60;;;7.87;;
17171;SDS011;8701;50.150;8.756;2023-04-08T15:05:15;11.30;;;7.07;;
17171;SDS011;8701;50.150;8.756;2023-04-08T15:09:17;10.43;;;7.10;;
17171;SDS011;8701;50.150;8.756;2023-04-08T15:13:20;11.57;;;7.70;;
17171;SDS011;8701;50.150;8.756;2023-04-08T15:17:24;13.77;;;7.93;;
17171;SDS011;8701;50.150;8.756;2023-04-08T15:21:26;11.50;;;7.40;;
17171;SDS011;8701;50.150;8.756;2023-04-08T15:25:28;12.80;;;7.27;;
17171;SDS011;8701;50.150;8.756;2023-04-08T15:29:31;14.30;;;8.13;;
17171;SDS011;8701;50.150;8.756;2023-04-08T15:33:38;11.80;;;7.30;;
17171;SDS011;8701;50.150;8.756;2023-04-08T15:37:41;10.83;;;6.63;;
17171;SDS011;8701;50.150;8.756;2023-04-08T15:41:43;11.07;;;6.70;;
17171;SDS011;8701;50.150;8.756;2023-04-08T15:45:46;11.47;;;7.23;;
17171;SDS011;8701;50.150;8.756;2023-04-08T15:49:52;10.90;;;7.57;;
17171;SDS011;8701;50.150;8.756;2023-04-08T15:53:55;11.87;;;7.30;;
17171;SDS011;8701;50.150;8.756;2023-04-08T15:57:57;12.50;;;7.50;;
17171;SDS011;8701;50.150;8.756;2023-04-08T16:01:59;12.00;;;7.57;;
17171;SDS011;8701;50.150;8.756;2023-04-08T16:06:03;12.50;;;7.13;;
17171;SDS011;8701;50.150;8.756;2023-04-08T16:10:06;12.43;;;7.00;;
17171;SDS011;8701;50.150;8.756;2023-04-08T16:14:09;12.60;;;7.83;;
17171;SDS011;8701;50.150;8.756;2023-04-08T16:18:11;15.50;;;8.47;;
17171;SDS011;8701;50.150;8.756;2023-04-08T16:22:15;15.10;;;9.33;;
17171;SDS011;8701;50.150;8.756;2023-04-08T16:26:17;14.50;;;9.33;;
17171;SDS011;8701;50.150;8.756;2023-04-08T16:30:21;17.93;;;9.30;;
17171;SDS011;8701;50.150;8.756;2023-04-08T16:34:23;13.10;;;8.17;;
17171;SDS011;8701;50.150;8.756;2023-04-08T16:38:26;13.37;;;7.67;;
17171;SDS011;8701;50.150;8.756;2023-04-08T16:42:29;11.00;;;6.67;;
17171;SDS011;8701;50.150;8.756;2023-04-08T16:46:32;10.20;;;6.47;;
17171;SDS011;8701;50.150;8.756;2023-04-08T16:50:36;10.00;;;5.80;;
17171;SDS011;8701;50.150;8.756;2023-04-08T16:54:39;9.37;;;5.00;;
17171;SDS011;8701;50.150;8.756;2023-04-08T16:58:43;6.57;;;3.70;;
17171;SDS011;8701;50.150;8.756;2023-04-08T17:02:45;6.90;;;3.70;;
17171;SDS011;8701;50.150;8.756;2023-04-08T17:06:47;5.23;;;3.00;;
17171;SDS011;8701;50.150;8.756;2023-04-08T17:10:51;6.43;;;3.30;;
17171;SDS011;8701;50.150;8.756;2023-04-08T17:14:54;5.23;;;2.67;;
17171;SDS011;8701;50.150;8.756;2023-04-08T17:18:56;5.30;;;2.90;;
17171;SDS011;8701;50.150;8.756;2023-04-08T17:22:58;6.27;;;3.20;;
17171;SDS011;8701;50.150;8.756;2023-04-08T17:27:02;5.90;;;3.30;;
17171;SDS011;8701;50.150;8.756;2023-04-08T17:31:05;5.10;;;2.70;;
17171;SDS011;8701;50.150;8.756;2023-04-08T17:35:07;6.60;;;3.10;;
17171;SDS011;8701;50.150;8.756;2023-04-08T17:39:09;6.30;;;3.40;;
17171;SDS011;8701;50.150;8.756;2023-04-08T17:43:13;6.13;;;2.93;;
17171;SDS011;8701;50.150;8.756;2023-04-08T17:47:15;5.90;;;3.03;;
17171;SDS011;8701;50.150;8.756;2023-04-08T17:51:17;5.57;;;3.27;;
17171;SDS011;8701;50.150;8.756;2023-04-08T17:55:20;5.63;;;2.73;;
17171;SDS011;8701;50.150;8.756;2023-04-08T17:59:24;6.80;;;2.80;;
17171;SDS011;8701;50.150;8.756;2023-04-08T18:03:26;7.27;;;3.83;;
17171;SDS011;8701;50.150;8.756;2023-04-08T18:07:28;7.17;;;4.30;;
17171;SDS011;8701;50.150;8.756;2023-04-08T18:11:31;14.40;;;3.50;;
17171;SDS011;8701;50.150;8.756;2023-04-08T18:15:34;6.33;;;3.30;;
17171;SDS011;8701;50.150;8.756;2023-04-08T18:19:36;7.30;;;3.30;;
17171;SDS011;8701;50.150;8.756;2023-04-08T18:23:39;6.20;;;3.20;;
17171;SDS011;8701;50.150;8.756;2023-04-08T18:27:41;5.80;;;3.40;;
17171;SDS011;8701;50.150;8.756;2023-04-08T18:31:44;4.87;;;2.40;;
17171;SDS011;8701;50.150;8.756;2023-04-08T18:35:47;5.67;;;2.90;;
17171;SDS011;8701;50.150;8.756;2023-04-08T18:39:49;6.50;;;3.20;;
17171;SDS011;8701;50.150;8.756;2023-04-08T18:43:51;4.53;;;2.50;;
17171;SDS011;8701;50.150;8.756;2023-04-08T18:47:55;6.10;;;3.20;;
17171;SDS011;8701;50.150;8.756;2023-04-08T18:51:57;5.23;;;3.00;;
17171;SDS011;8701;50.150;8.756;2023-04-08T18:56:00;6.40;;;3.30;;
17171;SDS011;8701;50.150;8.756;2023-04-08T19:00:02;5.70;;;3.13;;
17171;SDS011;8701;50.150;8.756;2023-04-08T19:04:06;7.13;;;3.43;;
17171;SDS011;8701;50.150;8.756;2023-04-08T19:08:10;6.57;;;3.20;;
17171;SDS011;8701;50.150;8.756;2023-04-08T19:12:12;6.93;;;3.80;;
17171;SDS011;8701;50.150;8.756;2023-04-08T19:16:14;7.10;;;4.00;;
17171;SDS011;8701;50.150;8.756;2023-04-08T19:20:18;6.20;;;3.60;;
17171;SDS011;8701;50.150;8.756;2023-04-08T19:24:20;7.23;;;4.20;;
17171;SDS011;8701;50.150;8.756;2023-04-08T19:28:22;8.50;;;5.00;;
17171;SDS011;8701;50.150;8.756;2023-04-08T19:32:25;7.57;;;4.60;;
17171;SDS011;8701;50.150;8.756;2023-04-08T19:36:29;6.63;;;3.70;;
17171;SDS011;8701;50.150;8.756;2023-04-08T19:40:31;8.33;;;4.27;;
17171;SDS011;8701;50.150;8.756;2023-04-08T19:44:33;7.23;;;4.03;;
17171;SDS011;8701;50.150;8.756;2023-04-08T19:48:36;7.20;;;4.20;;
17171;SDS011;8701;50.150;8.756;2023-04-08T19:52:40;8.60;;;4.40;;
17171;SDS011;8701;50.150;8.756;2023-04-08T19:56:42;8.60;;;4.70;;
17171;SDS011;8701;50.150;8.756;2023-04-08T20:00:44;7.60;;;4.53;;
17171;SDS011;8701;50.150;8.756;2023-04-08T20:04:46;7.93;;;4.63;;
17171;SDS011;8701;50.150;8.756;2023-04-08T20:08:51;7.90;;;4.63;;
17171;SDS011;8701;50.150;8.756;2023-04-08T20:12:54;7.90;;;4.20;;
17171;SDS011;8701;50.150;8.756;2023-04-08T20:16:56;8.53;;;4.80;;
17171;SDS011;8701;50.150;8.756;2023-04-08T20:20:58;10.97;;;5.40;;
17171;SDS011;8701;50.150;8.756;2023-04-08T20:25:02;9.27;;;5.70;;
17171;SDS011;8701;50.150;8.756;2023-04-08T20:29:05;7.43;;;4.53;;
17171;SDS011;8701;50.150;8.756;2023-04-08T20:33:07;8.67;;;5.00;;
17171;SDS011;8701;50.150;8.756;2023-04-08T20:37:09;9.00;;;5.10;;
17171;SDS011;8701;50.150;8.756;2023-04-08T20:41:17;9.20;;;4.73;;
17171;SDS011;8701;50.150;8.756;2023-04-08T20:45:20;9.10;;;4.60;;
17171;SDS011;8701;50.150;8.756;2023-04-08T20:49:23;10.50;;;5.60;;
17171;SDS011;8701;50.150;8.756;2023-04-08T20:53:26;9.80;;;5.10;;
17171;SDS011;8701;50.150;8.756;2023-04-08T20:57:30;11.77;;;5.90;;
17171;SDS011;8701;50.150;8.756;2023-04-08T21:01:32;8.83;;;4.90;;
17171;SDS011;8701;50.150;8.756;2023-04-08T21:05:35;8.47;;;4.90;;
17171;SDS011;8701;50.150;8.756;2023-04-08T21:09:38;10.83;;;5.60;;
17171;SDS011;8701;50.150;8.756;2023-04-08T21:13:42;10.33;;;5.60;;
17171;SDS011;8701;50.150;8.756;2023-04-08T21:17:44;10.53;;;5.97;;
17171;SDS011;8701;50.150;8.756;2023-04-08T21:21:47;9.77;;;5.27;;
17171;SDS011;8701;50.150;8.756;2023-04-08T21:25:49;10.73;;;6.00;;
17171;SDS011;8701;50.150;8.756;2023-04-08T21:29:53;10.23;;;6.10;;
17171;SDS011;8701;50.150;8.756;2023-04-08T21:33:55;14.80;;;5.63;;
17171;SDS011;8701;50.150;8.756;2023-04-08T21:37:58;10.43;;;5.57;;
17171;SDS011;8701;50.150;8.756;2023-04-08T21:42:00;9.80;;;5.70;;
17171;SDS011;8701;50.150;8.756;2023-04-08T21:46:04;9.60;;;5.30;;
17171;SDS011;8701;50.150;8.756;2023-04-08T21:50:06;9.53;;;5.77;;
17171;SDS011;8701;50.150;8.756;2023-04-08T21:54:09;11.37;;;5.63;;
17171;SDS011;8701;50.150;8.756;2023-04-08T21:58:12;9.80;;;5.80;;
17171;SDS011;8701;50.150;8.756;2023-04-08T22:02:16;11.53;;;6.53;;
17171;SDS011;8701;50.150;8.756;2023-04-08T22:06:18;10.57;;;6.17;;
17171;SDS011;8701;50.150;8.756;2023-04-08T22:10:20;12.00;;;6.10;;
17171;SDS011;8701;50.150;8.756;2023-04-08T22:14:23;11.27;;;6.17;;
17171;SDS011;8701;50.150;8.756;2023-04-08T22:18:26;10.43;;;6.00;;
17171;SDS011;8701;50.150;8.756;2023-04-08T22:22:28;13.23;;;6.13;;
17171;SDS011;8701;50.150;8.756;2023-04-08T22:26:31;13.17;;;6.03;;
17171;SDS011;8701;50.150;8.756;2023-04-08T22:30:33;10.07;;;5.77;;
17171;SDS011;8701;50.150;8.756;2023-04-08T22:34:37;10.13;;;5.90;;
17171;SDS011;8701;50.150;8.756;2023-04-08T22:38:39;11.57;;;6.40;;
17171;SDS011;8701;50.150;8.756;2023-04-08T22:42:41;9.10;;;5.10;;
17171;SDS011;8701;50.150;8.756;2023-04-08T22:46:43;11.53;;;6.10;;
17171;SDS011;8701;50.150;8.756;2023-04-08T22:50:47;10.90;;;6.27;;
17171;SDS011;8701;50.150;8.756;2023-04-08T22:54:49;11.33;;;6.27;;
17171;SDS011;8701;50.150;8.756;2023-04-08T22:58:51;10.83;;;5.40;;
17171;SDS011;8701;50.150;8.756;2023-04-08T23:02:54;12.20;;;6.20;;
17171;SDS011;8701;50.150;8.756;2023-04-08T23:06:58;13.00;;;6.73;;
17171;SDS011;8701;50.150;8.756;2023-04-08T23:11:00;9.67;;;5.70;;
17171;SDS011;8701;50.150;8.756;2023-04-08T23:15:03;16.60;;;6.40;;
17171;SDS011;8701;50.150;8.756;2023-04-08T23:19:06;11.70;;;6.60;;
17171;SDS011;8701;50.150;8.756;2023-04-08T23:23:09;11.70;;;6.23;;
17171;SDS011;8701;50.150;8.756;2023-04-08T23:27:11;14.10;;;6.77;;
17171;SDS011;8701;50.150;8.756;2023-04-08T23:31:14;12.30;;;6.43;;
17171;SDS011;8701;50.150;8.756;2023-04-08T23:35:16;14.57;;;7.60;;
17171;SDS011;8701;50.150;8.756;2023-04-08T23:39:19;12.83;;;6.83;;
17171;SDS011;8701;50.150;8.756;2023-04-08T23:43:22;12.03;;;6.00;;
17171;SDS011;8701;50.150;8.756;2023-04-08T23:47:24;9.97;;;5.57;;
17171;SDS011;8701;50.150;8.756;2023-04-08T23:51:26;12.93;;;6.80;;
17171;SDS011;8701;50.150;8.756;2023-04-08T23:55:29;11.33;;;5.83;;
17171;SDS011;8701;50.150;8.756;2023-04-08T23:59:32;13.80;;;6.30;;
